Rossville, Iowa
Current Conditions -  °F | °C
As of 12:35 PM on Thursday 29 Jan 2015 (Local Time) from KPDC Reporting Station
Overcast Overcast  
Wind Chill: 27°   Ceiling: 2900
Heat Index: 36°   Visibility: 10mi
Dew Point: 25°   Wind: 13mph
Humidity: 64%   Direction: 310°NW
Pressure: 30.11"   Gusts: 23mph
Location:  43.0888°N, 91.4288°W
Report Text: KPDC 291835Z AUTO 31011G20KT 10SM OVC029 02/M04 A3011 RMK AO2 T00211040
Loading
Personal Weather Stations






























Interactive Weather Map New forecast layout! Learn more

10-Day Weather Forecast

Advertisements
Track Severe Weather on mobile